sensor_id;sensor_type;location;lat;lon;timestamp;pressure;altitude;pressure_sealevel;temperature;humidity
68077;BME280;54866;53.458;14.540;2023-02-16T00:01:59;101406.98;;;-1.65;100.00
68077;BME280;54866;53.458;14.540;2023-02-16T00:04:29;101402.70;;;-1.67;100.00
68077;BME280;54866;53.458;14.540;2023-02-16T00:06:59;101396.70;;;-1.69;100.00
68077;BME280;54866;53.458;14.540;2023-02-16T00:09:28;101395.80;;;-1.67;100.00
68077;BME280;54866;53.458;14.540;2023-02-16T00:11:58;101396.98;;;-1.66;100.00
68077;BME280;54866;53.458;14.540;2023-02-16T00:14:45;101399.38;;;-1.65;100.00
68077;BME280;54866;53.458;14.540;2023-02-16T00:17:14;101398.69;;;-1.64;100.00
68077;BME280;54866;53.458;14.540;2023-02-16T00:19:44;101398.34;;;-1.64;100.00
68077;BME280;54866;53.458;14.540;2023-02-16T00:22:13;101403.71;;;-1.65;100.00
68077;BME280;54866;53.458;14.540;2023-02-16T00:24:42;101406.33;;;-1.66;100.00
68077;BME280;54866;53.458;14.540;2023-02-16T00:27:15;101417.02;;;-1.65;100.00
68077;BME280;54866;53.458;14.540;2023-02-16T00:29:46;101416.83;;;-1.64;100.00
68077;BME280;54866;53.458;14.540;2023-02-16T00:32:15;101415.62;;;-1.65;100.00
68077;BME280;54866;53.458;14.540;2023-02-16T00:34:44;101412.52;;;-1.66;100.00
68077;BME280;54866;53.458;14.540;2023-02-16T00:37:14;101411.12;;;-1.64;100.00
68077;BME280;54866;53.458;14.540;2023-02-16T00:39:44;101410.42;;;-1.64;100.00
68077;BME280;54866;53.458;14.540;2023-02-16T00:42:17;101412.14;;;-1.63;100.00
68077;BME280;54866;53.458;14.540;2023-02-16T00:44:49;101413.32;;;-1.61;100.00
68077;BME280;54866;53.458;14.540;2023-02-16T00:47:21;101408.14;;;-1.61;100.00
68077;BME280;54866;53.458;14.540;2023-02-16T00:49:52;101406.38;;;-1.60;100.00
68077;BME280;54866;53.458;14.540;2023-02-16T00:52:30;101404.65;;;-1.60;100.00
68077;BME280;54866;53.458;14.540;2023-02-16T00:55:02;101403.46;;;-1.61;100.00
68077;BME280;54866;53.458;14.540;2023-02-16T00:57:35;101399.98;;;-1.61;100.00
68077;BME280;54866;53.458;14.540;2023-02-16T01:00:12;101396.55;;;-1.61;100.00
68077;BME280;54866;53.458;14.540;2023-02-16T01:02:44;101399.61;;;-1.59;100.00
68077;BME280;54866;53.458;14.540;2023-02-16T01:05:14;101394.83;;;-1.61;100.00
68077;BME280;54866;53.458;14.540;2023-02-16T01:07:44;101403.21;;;-1.56;100.00
68077;BME280;54866;53.458;14.540;2023-02-16T01:10:32;101406.65;;;-1.55;100.00
68077;BME280;54866;53.458;14.540;2023-02-16T01:13:20;101402.86;;;-1.55;100.00
68077;BME280;54866;53.458;14.540;2023-02-16T01:15:50;101397.83;;;-1.54;100.00
68077;BME280;54866;53.458;14.540;2023-02-16T01:18:20;101393.00;;;-1.55;100.00
68077;BME280;54866;53.458;14.540;2023-02-16T01:20:50;101397.83;;;-1.54;100.00
68077;BME280;54866;53.458;14.540;2023-02-16T01:23:19;101398.36;;;-1.54;100.00
68077;BME280;54866;53.458;14.540;2023-02-16T01:25:49;101395.95;;;-1.56;100.00
68077;BME280;54866;53.458;14.540;2023-02-16T01:28:20;101387.84;;;-1.56;100.00
68077;BME280;54866;53.458;14.540;2023-02-16T01:30:50;101389.38;;;-1.55;100.00
68077;BME280;54866;53.458;14.540;2023-02-16T01:33:22;101384.05;;;-1.56;100.00
68077;BME280;54866;53.458;14.540;2023-02-16T01:35:52;101388.51;;;-1.55;100.00
68077;BME280;54866;53.458;14.540;2023-02-16T01:38:25;101391.23;;;-1.52;100.00
68077;BME280;54866;53.458;14.540;2023-02-16T01:41:01;101388.83;;;-1.53;100.00
68077;BME280;54866;53.458;14.540;2023-02-16T01:43:38;101394.52;;;-1.53;100.00
68077;BME280;54866;53.458;14.540;2023-02-16T01:46:15;101395.41;;;-1.54;100.00
68077;BME280;54866;53.458;14.540;2023-02-16T01:48:48;101389.77;;;-1.57;100.00
68077;BME280;54866;53.458;14.540;2023-02-16T01:51:22;101386.63;;;-1.56;100.00
68077;BME280;54866;53.458;14.540;2023-02-16T01:54:06;101385.41;;;-1.55;100.00
68077;BME280;54866;53.458;14.540;2023-02-16T01:56:42;101388.18;;;-1.55;100.00
68077;BME280;54866;53.458;14.540;2023-02-16T01:59:18;101390.79;;;-1.56;100.00
68077;BME280;54866;53.458;14.540;2023-02-16T02:01:55;101386.64;;;-1.56;100.00
68077;BME280;54866;53.458;14.540;2023-02-16T02:04:31;101388.05;;;-1.58;100.00
68077;BME280;54866;53.458;14.540;2023-02-16T02:07:26;101389.75;;;-1.58;100.00
68077;BME280;54866;53.458;14.540;2023-02-16T02:10:04;101377.16;;;-1.59;100.00
68077;BME280;54866;53.458;14.540;2023-02-16T02:12:38;101376.48;;;-1.59;100.00
68077;BME280;54866;53.458;14.540;2023-02-16T02:15:11;101374.30;;;-1.63;100.00
68077;BME280;54866;53.458;14.540;2023-02-16T02:17:43;101383.22;;;-1.60;100.00
68077;BME280;54866;53.458;14.540;2023-02-16T02:20:19;101377.66;;;-1.58;100.00
68077;BME280;54866;53.458;14.540;2023-02-16T02:29:25;101362.21;;;-1.53;100.00
68077;BME280;54866;53.458;14.540;2023-02-16T02:32:03;101359.23;;;-1.50;100.00
68077;BME280;54866;53.458;14.540;2023-02-16T02:34:46;101361.83;;;-1.51;100.00
68077;BME280;54866;53.458;14.540;2023-02-16T02:37:20;101359.88;;;-1.48;100.00
68077;BME280;54866;53.458;14.540;2023-02-16T02:40:00;101359.19;;;-1.48;100.00
68077;BME280;54866;53.458;14.540;2023-02-16T02:42:36;101353.15;;;-1.48;100.00
68077;BME280;54866;53.458;14.540;2023-02-16T02:45:13;101344.67;;;-1.48;100.00
68077;BME280;54866;53.458;14.540;2023-02-16T02:47:45;101341.92;;;-1.49;100.00
68077;BME280;54866;53.458;14.540;2023-02-16T02:50:38;101338.48;;;-1.49;100.00
68077;BME280;54866;53.458;14.540;2023-02-16T02:53:29;101335.04;;;-1.50;100.00
68077;BME280;54866;53.458;14.540;2023-02-16T02:56:01;101333.69;;;-1.52;100.00
68077;BME280;54866;53.458;14.540;2023-02-16T02:58:53;101331.08;;;-1.51;100.00
68077;BME280;54866;53.458;14.540;2023-02-16T03:01:45;101333.67;;;-1.51;100.00
68077;BME280;54866;53.458;14.540;2023-02-16T03:04:17;101334.18;;;-1.50;100.00
68077;BME280;54866;53.458;14.540;2023-02-16T03:06:51;101329.52;;;-1.51;100.00
68077;BME280;54866;53.458;14.540;2023-02-16T03:09:20;101328.66;;;-1.51;100.00
68077;BME280;54866;53.458;14.540;2023-02-16T03:11:51;101325.38;;;-1.51;100.00
68077;BME280;54866;53.458;14.540;2023-02-16T03:14:42;101326.05;;;-1.50;100.00
68077;BME280;54866;53.458;14.540;2023-02-16T03:17:17;101318.34;;;-1.54;100.00
68077;BME280;54866;53.458;14.540;2023-02-16T03:20:10;101319.01;;;-1.53;100.00
68077;BME280;54866;53.458;14.540;2023-02-16T03:22:58;101314.70;;;-1.53;100.00
68077;BME280;54866;53.458;14.540;2023-02-16T03:25:47;101314.87;;;-1.53;100.00
68077;BME280;54866;53.458;14.540;2023-02-16T03:28:38;101317.66;;;-1.54;100.00
68077;BME280;54866;53.458;14.540;2023-02-16T03:31:30;101319.06;;;-1.55;100.00
68077;BME280;54866;53.458;14.540;2023-02-16T03:34:02;101319.77;;;-1.56;100.00
68077;BME280;54866;53.458;14.540;2023-02-16T03:36:36;101319.78;;;-1.58;100.00
68077;BME280;54866;53.458;14.540;2023-02-16T03:39:07;101315.83;;;-1.59;100.00
68077;BME280;54866;53.458;14.540;2023-02-16T03:41:40;101301.03;;;-1.63;100.00
68077;BME280;54866;53.458;14.540;2023-02-16T03:44:10;101307.70;;;-1.59;100.00
68077;BME280;54866;53.458;14.540;2023-02-16T03:46:40;101302.17;;;-1.59;100.00
68077;BME280;54866;53.458;14.540;2023-02-16T03:49:09;101302.19;;;-1.59;100.00
68077;BME280;54866;53.458;14.540;2023-02-16T03:51:38;101298.91;;;-1.60;100.00
68077;BME280;54866;53.458;14.540;2023-02-16T03:54:08;101299.58;;;-1.59;100.00
68077;BME280;54866;53.458;14.540;2023-02-16T03:56:37;101301.16;;;-1.60;100.00
68077;BME280;54866;53.458;14.540;2023-02-16T03:59:06;101304.75;;;-1.58;100.00
68077;BME280;54866;53.458;14.540;2023-02-16T04:01:36;101310.63;;;-1.58;100.00
68077;BME280;54866;53.458;14.540;2023-02-16T04:04:05;101305.09;;;-1.58;100.00
68077;BME280;54866;53.458;14.540;2023-02-16T04:06:35;101309.79;;;-1.60;100.00
68077;BME280;54866;53.458;14.540;2023-02-16T04:09:04;101311.03;;;-1.62;100.00
68077;BME280;54866;53.458;14.540;2023-02-16T04:11:33;101307.96;;;-1.64;100.00
68077;BME280;54866;53.458;14.540;2023-02-16T04:14:20;101305.91;;;-1.65;100.00
68077;BME280;54866;53.458;14.540;2023-02-16T04:16:50;101305.92;;;-1.65;100.00
68077;BME280;54866;53.458;14.540;2023-02-16T04:19:19;101297.98;;;-1.65;100.00
68077;BME280;54866;53.458;14.540;2023-02-16T04:21:50;101297.64;;;-1.65;100.00
68077;BME280;54866;53.458;14.540;2023-02-16T04:24:21;101287.49;;;-1.68;100.00
68077;BME280;54866;53.458;14.540;2023-02-16T04:26:50;101288.13;;;-1.65;100.00
68077;BME280;54866;53.458;14.540;2023-02-16T04:29:20;101290.91;;;-1.66;100.00
68077;BME280;54866;53.458;14.540;2023-02-16T04:31:49;101290.55;;;-1.65;100.00
68077;BME280;54866;53.458;14.540;2023-02-16T04:34:19;101289.34;;;-1.65;100.00
68077;BME280;54866;53.458;14.540;2023-02-16T04:36:48;101292.27;;;-1.65;100.00
68077;BME280;54866;53.458;14.540;2023-02-16T04:39:18;101292.63;;;-1.65;100.00
68077;BME280;54866;53.458;14.540;2023-02-16T04:41:47;101294.35;;;-1.65;100.00
68077;BME280;54866;53.458;14.540;2023-02-16T04:44:17;101282.11;;;-1.66;100.00
68077;BME280;54866;53.458;14.540;2023-02-16T04:46:46;101282.65;;;-1.68;100.00
68077;BME280;54866;53.458;14.540;2023-02-16T04:49:16;101289.38;;;-1.67;100.00
68077;BME280;54866;53.458;14.540;2023-02-16T04:51:45;101284.95;;;-1.71;100.00
68077;BME280;54866;53.458;14.540;2023-02-16T04:54:14;101289.95;;;-1.69;100.00
68077;BME280;54866;53.458;14.540;2023-02-16T04:56:45;101286.39;;;-1.73;100.00
68077;BME280;54866;53.458;14.540;2023-02-16T04:59:15;101286.73;;;-1.73;100.00
68077;BME280;54866;53.458;14.540;2023-02-16T05:01:44;101289.16;;;-1.74;100.00
68077;BME280;54866;53.458;14.540;2023-02-16T05:04:14;101289.67;;;-1.74;100.00
68077;BME280;54866;53.458;14.540;2023-02-16T05:06:44;101292.44;;;-1.73;100.00
68077;BME280;54866;53.458;14.540;2023-02-16T05:09:13;101286.73;;;-1.73;100.00
68077;BME280;54866;53.458;14.540;2023-02-16T05:11:42;101290.81;;;-1.69;100.00
68077;BME280;54866;53.458;14.540;2023-02-16T05:14:32;101291.45;;;-1.67;100.00
68077;BME280;54866;53.458;14.540;2023-02-16T05:17:13;101285.00;;;-1.64;100.00
68077;BME280;54866;53.458;14.540;2023-02-16T05:19:46;101289.33;;;-1.65;100.00
68077;BME280;54866;53.458;14.540;2023-02-16T05:22:16;101285.45;;;-1.60;100.00
68077;BME280;54866;53.458;14.540;2023-02-16T05:24:45;101279.86;;;-1.58;100.00
68077;BME280;54866;53.458;14.540;2023-02-16T05:27:16;101280.03;;;-1.56;100.00
68077;BME280;54866;53.458;14.540;2023-02-16T05:29:46;101282.38;;;-1.53;100.00
68077;BME280;54866;53.458;14.540;2023-02-16T05:32:16;101284.73;;;-1.49;100.00
68077;BME280;54866;53.458;14.540;2023-02-16T05:34:46;101285.70;;;-1.46;100.00
68077;BME280;54866;53.458;14.540;2023-02-16T05:37:17;101289.11;;;-1.44;100.00
68077;BME280;54866;53.458;14.540;2023-02-16T05:39:46;101287.21;;;-1.44;100.00
68077;BME280;54866;53.458;14.540;2023-02-16T05:42:16;101291.83;;;-1.41;100.00
68077;BME280;54866;53.458;14.540;2023-02-16T05:44:45;101294.57;;;-1.40;100.00
68077;BME280;54866;53.458;14.540;2023-02-16T05:47:14;101293.31;;;-1.36;100.00
68077;BME280;54866;53.458;14.540;2023-02-16T05:49:44;101284.59;;;-1.33;100.00
68077;BME280;54866;53.458;14.540;2023-02-16T05:52:13;101284.90;;;-1.31;100.00
68077;BME280;54866;53.458;14.540;2023-02-16T05:54:42;101284.70;;;-1.31;100.00
68077;BME280;54866;53.458;14.540;2023-02-16T05:57:12;101286.77;;;-1.30;100.00
68077;BME280;54866;53.458;14.540;2023-02-16T05:59:41;101286.95;;;-1.30;100.00
68077;BME280;54866;53.458;14.540;2023-02-16T06:02:10;101279.84;;;-1.29;100.00
68077;BME280;54866;53.458;14.540;2023-02-16T06:04:40;101280.69;;;-1.29;100.00
68077;BME280;54866;53.458;14.540;2023-02-16T06:07:09;101275.66;;;-1.28;100.00
68077;BME280;54866;53.458;14.540;2023-02-16T06:09:38;101269.10;;;-1.28;100.00
68077;BME280;54866;53.458;14.540;2023-02-16T06:12:08;101269.27;;;-1.28;100.00
68077;BME280;54866;53.458;14.540;2023-02-16T06:14:37;101268.59;;;-1.28;100.00
68077;BME280;54866;53.458;14.540;2023-02-16T06:17:06;101273.45;;;-1.29;100.00
68077;BME280;54866;53.458;14.540;2023-02-16T06:19:36;101282.79;;;-1.29;100.00
68077;BME280;54866;53.458;14.540;2023-02-16T06:22:05;101282.77;;;-1.29;100.00
68077;BME280;54866;53.458;14.540;2023-02-16T06:24:34;101285.34;;;-1.28;100.00
68077;BME280;54866;53.458;14.540;2023-02-16T06:27:05;101287.56;;;-1.27;100.00
68077;BME280;54866;53.458;14.540;2023-02-16T06:29:35;101287.54;;;-1.26;100.00
68077;BME280;54866;53.458;14.540;2023-02-16T06:32:04;101287.17;;;-1.25;100.00
68077;BME280;54866;53.458;14.540;2023-02-16T06:34:34;101290.12;;;-1.25;100.00
68077;BME280;54866;53.458;14.540;2023-02-16T06:37:03;101294.10;;;-1.25;100.00
68077;BME280;54866;53.458;14.540;2023-02-16T06:39:33;101291.52;;;-1.26;100.00
68077;BME280;54866;53.458;14.540;2023-02-16T06:42:02;101297.83;;;-1.22;100.00
68077;BME280;54866;53.458;14.540;2023-02-16T06:44:31;101296.79;;;-1.20;100.00
68077;BME280;54866;53.458;14.540;2023-02-16T06:47:01;101296.91;;;-1.18;100.00
68077;BME280;54866;53.458;14.540;2023-02-16T06:49:30;101290.67;;;-1.17;100.00
68077;BME280;54866;53.458;14.540;2023-02-16T06:51:59;101286.20;;;-1.11;100.00
68077;BME280;54866;53.458;14.540;2023-02-16T06:54:29;101282.29;;;-1.06;100.00
68077;BME280;54866;53.458;14.540;2023-02-16T06:56:58;101284.48;;;-1.02;100.00
68077;BME280;54866;53.458;14.540;2023-02-16T06:59:27;101287.65;;;-0.97;100.00
68077;BME280;54866;53.458;14.540;2023-02-16T07:01:57;101287.36;;;-0.92;100.00
68077;BME280;54866;53.458;14.540;2023-02-16T07:04:26;101283.43;;;-0.85;100.00
68077;BME280;54866;53.458;14.540;2023-02-16T07:06:55;101280.73;;;-0.80;100.00
68077;BME280;54866;53.458;14.540;2023-02-16T07:09:25;101289.44;;;-0.76;100.00
68077;BME280;54866;53.458;14.540;2023-02-16T07:11:54;101284.14;;;-0.71;100.00
68077;BME280;54866;53.458;14.540;2023-02-16T07:14:24;101279.77;;;-0.68;100.00
68077;BME280;54866;53.458;14.540;2023-02-16T07:16:53;101281.94;;;-0.65;100.00
68077;BME280;54866;53.458;14.540;2023-02-16T07:19:24;101279.74;;;-0.60;100.00
68077;BME280;54866;53.458;14.540;2023-02-16T07:21:53;101275.50;;;-0.56;100.00
68077;BME280;54866;53.458;14.540;2023-02-16T07:24:23;101275.20;;;-0.50;100.00
68077;BME280;54866;53.458;14.540;2023-02-16T07:26:52;101270.89;;;-0.44;100.00
68077;BME280;54866;53.458;14.540;2023-02-16T07:29:22;101274.16;;;-0.36;100.00
68077;BME280;54866;53.458;14.540;2023-02-16T07:31:52;101273.66;;;-0.29;100.00
68077;BME280;54866;53.458;14.540;2023-02-16T07:34:23;101273.77;;;-0.20;100.00
68077;BME280;54866;53.458;14.540;2023-02-16T07:36:52;101268.80;;;-0.14;100.00
68077;BME280;54866;53.458;14.540;2023-02-16T07:39:22;101269.98;;;-0.07;100.00
68077;BME280;54866;53.458;14.540;2023-02-16T07:41:51;101273.89;;;0.04;100.00
68077;BME280;54866;53.458;14.540;2023-02-16T07:44:21;101269.48;;;0.12;100.00
68077;BME280;54866;53.458;14.540;2023-02-16T07:46:50;101268.13;;;0.25;100.00
68077;BME280;54866;53.458;14.540;2023-02-16T07:49:19;101260.80;;;0.46;100.00
68077;BME280;54866;53.458;14.540;2023-02-16T07:51:49;101258.52;;;0.72;100.00
68077;BME280;54866;53.458;14.540;2023-02-16T07:54:18;101259.17;;;0.92;100.00
68077;BME280;54866;53.458;14.540;2023-02-16T07:56:47;101259.20;;;1.15;100.00
68077;BME280;54866;53.458;14.540;2023-02-16T07:59:17;101259.31;;;1.27;100.00
68077;BME280;54866;53.458;14.540;2023-02-16T08:01:46;101264.85;;;1.45;100.00
68077;BME280;54866;53.458;14.540;2023-02-16T08:04:15;101263.09;;;1.72;99.53
68077;BME280;54866;53.458;14.540;2023-02-16T08:06:45;101264.59;;;1.85;98.16
68077;BME280;54866;53.458;14.540;2023-02-16T08:09:15;101264.96;;;2.00;98.26
68077;BME280;54866;53.458;14.540;2023-02-16T08:11:45;101266.05;;;2.39;98.29
68077;BME280;54866;53.458;14.540;2023-02-16T08:14:15;101266.09;;;2.95;97.24
68077;BME280;54866;53.458;14.540;2023-02-16T08:16:44;101258.81;;;3.66;95.68
68077;BME280;54866;53.458;14.540;2023-02-16T08:19:13;101260.34;;;4.53;92.93
68077;BME280;54866;53.458;14.540;2023-02-16T08:21:43;101257.70;;;5.59;89.71
68077;BME280;54866;53.458;14.540;2023-02-16T08:24:14;101246.16;;;6.50;83.73
68077;BME280;54866;53.458;14.540;2023-02-16T08:26:44;101243.39;;;7.24;79.79
68077;BME280;54866;53.458;14.540;2023-02-16T08:29:17;101243.43;;;7.75;74.94
68077;BME280;54866;53.458;14.540;2023-02-16T08:31:47;101238.43;;;8.68;71.04
68077;BME280;54866;53.458;14.540;2023-02-16T08:34:19;101229.98;;;9.70;67.15
68077;BME280;54866;53.458;14.540;2023-02-16T08:36:52;101229.48;;;10.41;64.03
68077;BME280;54866;53.458;14.540;2023-02-16T08:39:24;101232.04;;;11.09;62.71
68077;BME280;54866;53.458;14.540;2023-02-16T08:41:55;101242.45;;;10.92;58.11
68077;BME280;54866;53.458;14.540;2023-02-16T08:44:25;101247.33;;;10.68;57.99
68077;BME280;54866;53.458;14.540;2023-02-16T09:42:29;101233.08;;;15.57;41.42
68077;BME280;54866;53.458;14.540;2023-02-16T09:45:06;101237.09;;;15.56;41.69
68077;BME280;54866;53.458;14.540;2023-02-16T09:47:38;101233.00;;;15.91;40.95
68077;BME280;54866;53.458;14.540;2023-02-16T09:50:16;101236.11;;;16.20;40.79
68077;BME280;54866;53.458;14.540;2023-02-16T09:52:51;101229.69;;;16.66;40.81
68077;BME280;54866;53.458;14.540;2023-02-16T09:55:22;101234.48;;;17.25;38.69
68077;BME280;54866;53.458;14.540;2023-02-16T09:58:02;101232.37;;;17.27;38.17
68077;BME280;54866;53.458;14.540;2023-02-16T10:00:51;101230.23;;;17.27;37.74
68077;BME280;54866;53.458;14.540;2023-02-16T10:03:34;101229.58;;;17.17;37.09
68077;BME280;54866;53.458;14.540;2023-02-16T10:06:23;101224.94;;;17.17;37.41
68077;BME280;54866;53.458;14.540;2023-02-16T10:08:56;101227.11;;;17.01;37.64
68077;BME280;54866;53.458;14.540;2023-02-16T10:11:29;101222.40;;;16.64;38.29
68077;BME280;54866;53.458;14.540;2023-02-16T10:14:14;101224.02;;;16.41;37.93
68077;BME280;54866;53.458;14.540;2023-02-16T10:16:52;101230.66;;;16.08;38.50
68077;BME280;54866;53.458;14.540;2023-02-16T10:19:27;101235.13;;;15.42;40.01
68077;BME280;54866;53.458;14.540;2023-02-16T10:22:02;101238.04;;;14.42;42.07
68077;BME280;54866;53.458;14.540;2023-02-16T10:24:41;101241.33;;;14.32;42.71
68077;BME280;54866;53.458;14.540;2023-02-16T10:27:15;101241.38;;;14.71;42.35
68077;BME280;54866;53.458;14.540;2023-02-16T10:29:44;101232.06;;;14.89;41.99
68077;BME280;54866;53.458;14.540;2023-02-16T10:32:22;101230.05;;;14.89;42.22
68077;BME280;54866;53.458;14.540;2023-02-16T10:34:57;101223.70;;;14.99;42.23
68077;BME280;54866;53.458;14.540;2023-02-16T10:37:42;101226.73;;;15.19;42.17
68077;BME280;54866;53.458;14.540;2023-02-16T10:40:28;101228.39;;;14.80;42.61
68077;BME280;54866;53.458;14.540;2023-02-16T10:42:59;101228.20;;;14.90;42.79
68077;BME280;54866;53.458;14.540;2023-02-16T10:45:34;101233.09;;;15.21;41.79
68077;BME280;54866;53.458;14.540;2023-02-16T10:48:08;101234.88;;;15.31;41.70
68077;BME280;54866;53.458;14.540;2023-02-16T10:50:41;101233.18;;;15.34;41.88
68077;BME280;54866;53.458;14.540;2023-02-16T10:53:14;101233.27;;;15.07;41.78
68077;BME280;54866;53.458;14.540;2023-02-16T10:55:45;101228.44;;;14.59;43.29
68077;BME280;54866;53.458;14.540;2023-02-16T10:58:21;101221.84;;;14.74;43.68
68077;BME280;54866;53.458;14.540;2023-02-16T11:00:57;101222.27;;;14.77;43.60
68077;BME280;54866;53.458;14.540;2023-02-16T11:03:32;101224.30;;;14.70;43.35
68077;BME280;54866;53.458;14.540;2023-02-16T11:06:16;101228.73;;;14.29;44.23
68077;BME280;54866;53.458;14.540;2023-02-16T11:08:49;101232.61;;;13.46;45.76
68077;BME280;54866;53.458;14.540;2023-02-16T11:11:21;101233.59;;;12.81;47.30
68077;BME280;54866;53.458;14.540;2023-02-16T11:13:59;101225.84;;;12.21;49.47
68077;BME280;54866;53.458;14.540;2023-02-16T11:16:28;101226.38;;;11.91;50.11
68077;BME280;54866;53.458;14.540;2023-02-16T11:19:00;101224.20;;;11.59;50.98
68077;BME280;54866;53.458;14.540;2023-02-16T11:21:46;101224.63;;;11.67;51.43
68077;BME280;54866;53.458;14.540;2023-02-16T11:24:25;101223.80;;;11.83;51.11
68077;BME280;54866;53.458;14.540;2023-02-16T11:27:04;101219.46;;;12.20;50.78
68077;BME280;54866;53.458;14.540;2023-02-16T11:29:34;101216.52;;;12.28;50.18
68077;BME280;54866;53.458;14.540;2023-02-16T11:32:08;101214.65;;;12.52;49.43
68077;BME280;54866;53.458;14.540;2023-02-16T11:34:41;101211.17;;;12.35;49.97
68077;BME280;54866;53.458;14.540;2023-02-16T11:37:16;101216.45;;;12.04;51.02
68077;BME280;54866;53.458;14.540;2023-02-16T11:39:54;101211.22;;;12.17;50.90
68077;BME280;54866;53.458;14.540;2023-02-16T11:42:30;101209.09;;;12.26;50.98
68077;BME280;54866;53.458;14.540;2023-02-16T11:45:03;101207.39;;;12.48;50.24
68077;BME280;54866;53.458;14.540;2023-02-16T11:47:34;101196.16;;;12.58;50.09
68077;BME280;54866;53.458;14.540;2023-02-16T11:50:18;101192.79;;;12.78;50.37
68077;BME280;54866;53.458;14.540;2023-02-16T11:52:50;101187.00;;;13.06;49.60
68077;BME280;54866;53.458;14.540;2023-02-16T11:55:24;101185.33;;;13.23;48.62
68077;BME280;54866;53.458;14.540;2023-02-16T11:57:55;101186.02;;;13.01;49.54
68077;BME280;54866;53.458;14.540;2023-02-16T12:00:43;101182.43;;;13.38;49.36
68077;BME280;54866;53.458;14.540;2023-02-16T12:03:23;101187.11;;;13.38;47.56
68077;BME280;54866;53.458;14.540;2023-02-16T12:06:01;101187.04;;;12.97;48.75
68077;BME280;54866;53.458;14.540;2023-02-16T12:08:53;101187.48;;;12.78;49.09
68077;BME280;54866;53.458;14.540;2023-02-16T12:11:33;101183.42;;;12.60;49.95
68077;BME280;54866;53.458;14.540;2023-02-16T12:14:16;101175.08;;;12.59;50.08
68077;BME280;54866;53.458;14.540;2023-02-16T12:16:56;101176.71;;;12.89;49.60
68077;BME280;54866;53.458;14.540;2023-02-16T12:19:35;101171.78;;;13.22;49.17
68077;BME280;54866;53.458;14.540;2023-02-16T12:22:17;101167.98;;;13.53;49.18
68077;BME280;54866;53.458;14.540;2023-02-16T12:25:04;101168.27;;;13.75;48.75
68077;BME280;54866;53.458;14.540;2023-02-16T12:27:47;101166.77;;;13.84;47.68
68077;BME280;54866;53.458;14.540;2023-02-16T12:30:27;101155.77;;;13.53;47.50
68077;BME280;54866;53.458;14.540;2023-02-16T12:33:08;101155.50;;;13.30;48.29
68077;BME280;54866;53.458;14.540;2023-02-16T12:35:55;101149.68;;;13.56;48.23
68077;BME280;54866;53.458;14.540;2023-02-16T12:38:35;101150.96;;;13.74;47.76
68077;BME280;54866;53.458;14.540;2023-02-16T12:41:18;101154.63;;;13.90;47.47
68077;BME280;54866;53.458;14.540;2023-02-16T12:43:51;101150.41;;;14.01;47.20
68077;BME280;54866;53.458;14.540;2023-02-16T12:46:25;101150.54;;;13.98;47.88
68077;BME280;54866;53.458;14.540;2023-02-16T12:48:59;101157.94;;;13.43;48.41
68077;BME280;54866;53.458;14.540;2023-02-16T12:51:33;101158.06;;;12.88;50.10
68077;BME280;54866;53.458;14.540;2023-02-16T12:54:08;101154.96;;;12.67;50.88
68077;BME280;54866;53.458;14.540;2023-02-16T12:56:39;101144.21;;;12.44;51.62
68077;BME280;54866;53.458;14.540;2023-02-16T12:59:18;101152.41;;;12.16;52.26
68077;BME280;54866;53.458;14.540;2023-02-16T13:01:53;101152.98;;;12.18;52.96
68077;BME280;54866;53.458;14.540;2023-02-16T13:04:29;101148.23;;;12.27;53.11
68077;BME280;54866;53.458;14.540;2023-02-16T13:07:09;101147.54;;;11.88;53.65
68077;BME280;54866;53.458;14.540;2023-02-16T13:09:52;101154.62;;;11.24;55.71
68077;BME280;54866;53.458;14.540;2023-02-16T13:12:30;101153.10;;;10.97;56.91
68077;BME280;54866;53.458;14.540;2023-02-16T13:15:09;101148.06;;;10.93;57.46
68077;BME280;54866;53.458;14.540;2023-02-16T13:17:42;101147.08;;;10.80;58.16
68077;BME280;54866;53.458;14.540;2023-02-16T13:20:15;101146.71;;;10.48;59.16
68077;BME280;54866;53.458;14.540;2023-02-16T13:26:06;101147.52;;;10.16;60.89
68077;BME280;54866;53.458;14.540;2023-02-16T13:29:03;101143.48;;;9.85;62.05
68077;BME280;54866;53.458;14.540;2023-02-16T13:31:47;101141.15;;;9.54;63.49
68077;BME280;54866;53.458;14.540;2023-02-16T13:34:44;101143.75;;;9.36;64.32
68077;BME280;54866;53.458;14.540;2023-02-16T13:37:34;101143.16;;;9.19;65.72
68077;BME280;54866;53.458;14.540;2023-02-16T13:40:21;101140.14;;;9.06;66.37
68077;BME280;54866;53.458;14.540;2023-02-16T13:43:10;101136.91;;;8.91;67.28
68077;BME280;54866;53.458;14.540;2023-02-16T13:45:43;101131.56;;;8.78;67.91
68077;BME280;54866;53.458;14.540;2023-02-16T13:48:22;101134.08;;;8.74;68.42
68077;BME280;54866;53.458;14.540;2023-02-16T13:51:03;101134.09;;;8.71;68.86
68077;BME280;54866;53.458;14.540;2023-02-16T13:53:37;101130.87;;;8.78;68.80
68077;BME280;54866;53.458;14.540;2023-02-16T13:56:20;101128.65;;;8.90;68.83
68077;BME280;54866;53.458;14.540;2023-02-16T13:58:51;101130.02;;;9.15;68.28
68077;BME280;54866;53.458;14.540;2023-02-16T14:01:38;101125.89;;;9.41;66.89
68077;BME280;54866;53.458;14.540;2023-02-16T14:04:58;101122.28;;;9.53;66.63
68077;BME280;54866;53.458;14.540;2023-02-16T14:07:30;101124.94;;;9.57;66.56
68077;BME280;54866;53.458;14.540;2023-02-16T14:10:00;101126.97;;;9.51;66.22
68077;BME280;54866;53.458;14.540;2023-02-16T14:12:30;101126.52;;;9.39;66.81
68077;BME280;54866;53.458;14.540;2023-02-16T14:15:16;101129.33;;;9.26;67.34
68077;BME280;54866;53.458;14.540;2023-02-16T14:17:46;101127.89;;;9.11;67.91